createdAt,value
2018-12-30T00:00:42.485Z,13.63
2018-12-30T00:03:11.375Z,12.17
2018-12-30T00:05:40.146Z,16.27
2018-12-30T00:08:08.624Z,12.73
2018-12-30T00:10:37.114Z,15.57
2018-12-30T00:13:05.635Z,16.57
2018-12-30T00:15:34.459Z,14.20
2018-12-30T00:18:03.294Z,16.03
2018-12-30T00:20:31.740Z,13.80
2018-12-30T00:23:00.212Z,16.93
2018-12-30T00:25:28.647Z,15.57
2018-12-30T00:27:57.167Z,18.57
2018-12-30T00:30:25.763Z,12.13
2018-12-30T00:32:54.228Z,15.97
2018-12-30T00:35:22.751Z,18.47
2018-12-30T00:37:51.249Z,15.87
2018-12-30T00:40:20.087Z,16.20
2018-12-30T00:42:48.584Z,22.80
2018-12-30T00:45:17.067Z,15.10
2018-12-30T00:47:45.513Z,13.33
2018-12-30T00:50:14.044Z,14.40
2018-12-30T00:52:42.559Z,11.43
2018-12-30T00:55:11.335Z,19.33
2018-12-30T00:57:39.787Z,18.00
2018-12-30T01:00:08.718Z,17.20
2018-12-30T01:02:37.319Z,20.40
2018-12-30T01:05:05.939Z,16.20
2018-12-30T01:07:34.617Z,18.83
2018-12-30T01:10:03.309Z,19.57
2018-12-30T01:12:31.752Z,15.67
2018-12-30T01:15:00.287Z,21.53
2018-12-30T01:17:28.723Z,24.30
2018-12-30T01:19:57.188Z,20.50
2018-12-30T01:22:25.775Z,16.03
2018-12-30T01:24:54.206Z,21.47
2018-12-30T01:27:22.732Z,20.97
2018-12-30T01:29:51.254Z,22.70
2018-12-30T01:32:19.774Z,21.20
2018-12-30T01:34:48.272Z,22.43
2018-12-30T01:37:16.905Z,15.37
2018-12-30T01:39:45.408Z,18.07
2018-12-30T01:42:13.957Z,18.70
2018-12-30T01:44:42.524Z,15.77
2018-12-30T01:47:11.054Z,18.87
2018-12-30T01:49:39.494Z,16.30
2018-12-30T01:52:08.051Z,14.00
2018-12-30T01:54:36.548Z,16.37
2018-12-30T01:57:05.074Z,17.93
2018-12-30T01:59:33.507Z,18.00
2018-12-30T02:02:02.012Z,17.30
2018-12-30T02:04:30.554Z,21.73
2018-12-30T02:06:59.067Z,19.20
2018-12-30T02:09:27.509Z,24.03
2018-12-30T02:11:56.032Z,19.40
2018-12-30T02:14:24.552Z,20.83
2018-12-30T02:16:53.265Z,24.53
2018-12-30T02:19:21.724Z,15.40
2018-12-30T02:21:50.159Z,21.07
2018-12-30T02:24:18.607Z,19.37
2018-12-30T02:26:47.118Z,13.53
2018-12-30T02:29:15.963Z,14.93
2018-12-30T02:31:44.380Z,21.90
2018-12-30T02:34:12.929Z,21.53
2018-12-30T02:36:41.360Z,14.70
2018-12-30T02:39:09.875Z,20.37
2018-12-30T02:41:38.303Z,17.50
2018-12-30T02:44:06.753Z,18.23
2018-12-30T02:46:35.260Z,17.83
2018-12-30T02:49:03.786Z,21.47
2018-12-30T02:51:32.253Z,20.30
2018-12-30T02:54:00.784Z,17.13
2018-12-30T02:56:29.307Z,22.17
2018-12-30T02:58:57.740Z,18.83
2018-12-30T03:01:26.208Z,19.00
2018-12-30T03:03:54.629Z,19.80
2018-12-30T03:06:23.096Z,20.63
2018-12-30T03:08:51.515Z,18.97
2018-12-30T03:11:19.967Z,20.23
2018-12-30T03:13:48.391Z,19.63
2018-12-30T03:16:16.900Z,17.40
2018-12-30T03:18:45.315Z,15.67
2018-12-30T03:21:13.764Z,14.30
2018-12-30T03:23:42.194Z,21.00
2018-12-30T03:26:10.675Z,14.37
2018-12-30T03:28:39.140Z,19.37
2018-12-30T03:31:07.595Z,19.87
2018-12-30T03:33:36.020Z,14.13
2018-12-30T03:36:04.449Z,16.43
2018-12-30T03:38:32.890Z,19.07
2018-12-30T03:41:01.418Z,15.83
2018-12-30T03:43:29.849Z,16.20
2018-12-30T03:45:58.311Z,21.47
2018-12-30T03:48:26.821Z,12.07
2018-12-30T03:50:55.325Z,16.37
2018-12-30T03:53:23.772Z,22.37
2018-12-30T03:55:53.731Z,21.37
2018-12-30T03:58:22.190Z,16.37
2018-12-30T04:00:50.616Z,23.07
2018-12-30T04:03:19.083Z,20.73
2018-12-30T04:05:47.503Z,17.10
2018-12-30T04:08:15.967Z,17.73
2018-12-30T04:10:44.443Z,15.03
2018-12-30T04:13:12.877Z,17.20
2018-12-30T04:15:41.347Z,18.67
2018-12-30T04:18:09.797Z,20.57
2018-12-30T04:20:38.222Z,16.67
2018-12-30T04:23:06.679Z,17.47
2018-12-30T04:25:35.104Z,14.47
2018-12-30T04:28:03.532Z,17.93
2018-12-30T04:30:32.001Z,19.47
2018-12-30T04:33:00.420Z,20.37
2018-12-30T04:35:28.881Z,17.47
2018-12-30T04:37:57.306Z,19.73
2018-12-30T04:40:25.786Z,17.77
2018-12-30T04:42:54.198Z,16.57
2018-12-30T04:45:22.647Z,16.33
2018-12-30T04:47:51.696Z,18.13
2018-12-30T04:50:20.132Z,18.27
2018-12-30T04:52:48.799Z,14.77
2018-12-30T04:55:17.394Z,15.70
2018-12-30T04:57:45.804Z,21.37
2018-12-30T05:00:14.258Z,19.87
2018-12-30T05:02:42.683Z,18.40
2018-12-30T05:05:11.118Z,19.90
2018-12-30T05:07:39.563Z,17.33
2018-12-30T05:10:08.131Z,16.57
2018-12-30T05:12:36.665Z,15.67
2018-12-30T05:15:05.935Z,17.57
2018-12-30T05:17:34.426Z,19.77
2018-12-30T05:20:02.929Z,19.27
2018-12-30T05:22:33.992Z,17.03
2018-12-30T05:25:01.525Z,13.23
2018-12-30T05:27:30.004Z,15.03
2018-12-30T05:29:58.428Z,22.47
2018-12-30T05:32:26.903Z,22.67
2018-12-30T05:34:55.333Z,19.70
2018-12-30T05:37:23.777Z,18.60
2018-12-30T05:39:52.219Z,18.53
2018-12-30T05:42:20.652Z,17.63
2018-12-30T05:44:49.091Z,14.83
2018-12-30T05:47:17.517Z,19.97
2018-12-30T05:49:45.994Z,25.50
2018-12-30T05:52:14.487Z,17.00
2018-12-30T05:54:42.947Z,15.40
2018-12-30T05:57:11.447Z,21.03
2018-12-30T05:59:39.892Z,16.27
2018-12-30T06:02:08.314Z,19.87
2018-12-30T06:04:36.759Z,16.67
2018-12-30T06:07:05.182Z,11.70
2018-12-30T06:09:33.622Z,17.53
2018-12-30T06:12:02.067Z,15.40
2018-12-30T06:14:31.043Z,18.03
2018-12-30T06:16:59.468Z,18.67
2018-12-30T06:19:27.928Z,15.40
2018-12-30T06:21:56.345Z,14.87
2018-12-30T06:24:24.831Z,12.17
2018-12-30T06:26:53.316Z,19.00
2018-12-30T06:29:21.808Z,17.37
2018-12-30T06:31:50.271Z,18.33
2018-12-30T06:34:18.722Z,23.87
2018-12-30T06:36:47.169Z,17.90
2018-12-30T06:39:15.587Z,19.13
2018-12-30T06:41:44.031Z,20.23
2018-12-30T06:44:12.455Z,19.53
2018-12-30T06:46:40.915Z,19.10
2018-12-30T06:49:10.622Z,17.87
2018-12-30T06:51:39.168Z,20.90
2018-12-30T06:54:07.600Z,14.67
2018-12-30T06:56:36.043Z,14.67
2018-12-30T06:59:04.467Z,16.17
2018-12-30T07:01:32.936Z,15.87
2018-12-30T07:04:01.439Z,15.17
2018-12-30T07:06:29.887Z,17.97
2018-12-30T07:08:58.312Z,16.67
2018-12-30T07:11:26.760Z,18.47
2018-12-30T07:13:55.181Z,19.00
2018-12-30T07:16:23.637Z,19.53
2018-12-30T07:18:52.089Z,17.53
2018-12-30T07:21:20.511Z,14.23
2018-12-30T07:23:48.959Z,18.43
2018-12-30T07:26:17.378Z,15.33
2018-12-30T07:28:45.840Z,16.33
2018-12-30T07:31:14.259Z,17.47
2018-12-30T07:33:42.703Z,20.10
2018-12-30T07:36:11.124Z,20.27
2018-12-30T07:38:39.589Z,18.67
2018-12-30T07:41:08.004Z,19.20
2018-12-30T07:43:36.598Z,19.17
2018-12-30T07:46:05.072Z,15.20
2018-12-30T07:48:33.524Z,22.87
2018-12-30T07:51:02.011Z,17.40
2018-12-30T07:53:30.502Z,18.80
2018-12-30T07:55:58.925Z,19.17
2018-12-30T07:58:27.385Z,13.83
2018-12-30T08:00:55.830Z,15.90
2018-12-30T08:03:24.278Z,18.30
2018-12-30T08:05:52.703Z,13.10
2018-12-30T08:08:21.153Z,16.77
2018-12-30T08:10:49.576Z,14.30
2018-12-30T08:13:18.059Z,19.47
2018-12-30T08:15:46.533Z,16.03
2018-12-30T08:18:14.951Z,17.87
2018-12-30T08:20:43.447Z,15.77
2018-12-30T08:23:11.872Z,14.63
2018-12-30T08:25:40.323Z,12.07
2018-12-30T08:28:08.759Z,11.20
2018-12-30T08:30:37.376Z,10.60
2018-12-30T08:33:05.808Z,14.53
2018-12-30T08:35:34.924Z,15.60
2018-12-30T08:38:03.427Z,15.57
2018-12-30T08:40:31.843Z,10.83
2018-12-30T08:43:00.296Z,10.40
2018-12-30T08:45:28.812Z,11.87
2018-12-30T08:47:57.299Z,12.53
2018-12-30T08:50:25.759Z,14.83
2018-12-30T08:52:54.176Z,12.50
2018-12-30T08:55:22.716Z,14.80
2018-12-30T08:57:51.178Z,10.50
2018-12-30T09:00:19.295Z,14.70
2018-12-30T09:02:47.743Z,11.87
2018-12-30T09:05:15.939Z,11.87
2018-12-30T09:07:44.418Z,11.40
2018-12-30T09:10:12.668Z,10.10
2018-12-30T09:12:40.791Z,13.93
2018-12-30T09:15:08.876Z,11.43
2018-12-30T09:17:37.325Z,16.10
2018-12-30T09:20:05.836Z,12.23
2018-12-30T09:22:34.281Z,12.93
2018-12-30T09:25:02.711Z,15.33
2018-12-30T09:27:30.842Z,16.70
2018-12-30T09:29:59.274Z,9.63
2018-12-30T09:32:27.727Z,13.47
2018-12-30T09:34:56.172Z,11.87
2018-12-30T09:37:24.729Z,9.27
2018-12-30T09:39:53.167Z,13.27
2018-12-30T09:42:21.271Z,10.93
2018-12-30T09:44:49.720Z,14.00
2018-12-30T09:47:18.172Z,13.33
2018-12-30T09:49:46.388Z,12.40
2018-12-30T09:52:14.798Z,8.47
2018-12-30T09:54:43.280Z,18.47
2018-12-30T09:57:11.699Z,12.40
2018-12-30T09:59:40.151Z,8.63
2018-12-30T10:02:09.079Z,11.53
2018-12-30T10:04:37.583Z,17.67
2018-12-30T10:07:06.052Z,40.97
2018-12-30T10:09:34.471Z,14.90
2018-12-30T10:12:02.923Z,13.47
2018-12-30T10:14:31.374Z,14.63
2018-12-30T10:16:59.521Z,14.43
2018-12-30T10:19:27.926Z,12.70
2018-12-30T10:21:56.080Z,10.47
2018-12-30T10:24:24.515Z,16.57
2018-12-30T10:26:53.062Z,14.17
2018-12-30T10:29:21.241Z,17.50
2018-12-30T10:31:49.368Z,9.67
2018-12-30T10:34:17.512Z,10.63
2018-12-30T10:36:46.023Z,10.90
2018-12-30T10:39:14.155Z,11.17
2018-12-30T10:41:42.330Z,13.50
2018-12-30T10:44:10.831Z,12.77
2018-12-30T10:46:39.290Z,17.83
2018-12-30T10:49:07.399Z,11.47
2018-12-30T10:51:35.845Z,15.63
2018-12-30T10:54:04.355Z,14.17
2018-12-30T10:56:34.491Z,14.43
2018-12-30T10:59:03.014Z,11.10
2018-12-30T11:01:31.616Z,13.20
2018-12-30T11:04:00.081Z,14.77
2018-12-30T11:06:28.539Z,15.40
2018-12-30T11:08:56.994Z,15.20
2018-12-30T11:11:25.486Z,13.33
2018-12-30T11:13:53.643Z,11.27
2018-12-30T11:16:22.066Z,15.33
2018-12-30T11:18:50.523Z,14.23
2018-12-30T11:21:18.943Z,14.37
2018-12-30T11:23:47.382Z,10.73
2018-12-30T11:26:15.503Z,14.57
2018-12-30T11:28:43.944Z,16.57
2018-12-30T11:31:13.838Z,12.70
2018-12-30T11:33:42.480Z,14.43
2018-12-30T11:36:11.263Z,20.07
2018-12-30T11:38:40.070Z,13.73
2018-12-30T11:41:08.570Z,20.93
2018-12-30T11:43:37.031Z,17.70
2018-12-30T11:46:05.585Z,11.77
2018-12-30T11:48:34.038Z,12.47
2018-12-30T11:51:02.541Z,12.73
2018-12-30T11:53:30.972Z,14.23
2018-12-30T11:55:59.412Z,11.93
2018-12-30T11:58:27.871Z,14.90
2018-12-30T12:00:56.298Z,15.30
2018-12-30T12:03:24.728Z,15.87
2018-12-30T12:05:53.176Z,17.47
2018-12-30T12:08:21.616Z,16.23
2018-12-30T12:10:50.074Z,18.43
2018-12-30T12:13:18.507Z,18.43
2018-12-30T12:15:46.976Z,17.07
2018-12-30T12:18:15.419Z,15.90
2018-12-30T12:20:43.998Z,17.50
2018-12-30T12:23:12.467Z,15.73
2018-12-30T12:25:40.911Z,10.17
2018-12-30T12:28:09.349Z,17.50
2018-12-30T12:30:37.791Z,17.23
2018-12-30T12:33:06.228Z,12.50
2018-12-30T12:35:34.690Z,11.90
2018-12-30T12:38:03.111Z,14.87
2018-12-30T12:40:31.644Z,9.50
2018-12-30T12:43:00.063Z,14.67
2018-12-30T12:45:28.505Z,12.87
2018-12-30T12:47:56.987Z,12.03
2018-12-30T12:50:25.434Z,12.17
2018-12-30T12:52:53.591Z,13.10
2018-12-30T12:55:22.146Z,13.00
2018-12-30T12:57:50.591Z,12.73
2018-12-30T13:00:19.164Z,14.77
2018-12-30T13:02:47.627Z,13.10
2018-12-30T13:05:16.073Z,15.40
2018-12-30T13:07:44.583Z,13.83
2018-12-30T13:10:13.018Z,17.50
2018-12-30T13:12:41.185Z,13.63
2018-12-30T13:15:09.722Z,12.47
2018-12-30T13:17:38.195Z,18.30
2018-12-30T13:20:06.834Z,15.27
2018-12-30T13:22:34.970Z,11.43
2018-12-30T13:25:04.456Z,14.90
2018-12-30T13:27:32.919Z,12.63
2018-12-30T13:30:01.644Z,13.77
2018-12-30T13:32:35.865Z,16.87
2018-12-30T13:35:04.859Z,13.80
2018-12-30T13:37:33.501Z,21.33
2018-12-30T13:40:01.937Z,11.67
2018-12-30T13:42:30.376Z,13.20
2018-12-30T13:44:58.839Z,14.30
2018-12-30T13:47:27.420Z,10.00
2018-12-30T13:49:55.939Z,14.53
2018-12-30T13:52:24.452Z,11.03
2018-12-30T13:54:52.911Z,11.57
2018-12-30T13:57:21.344Z,10.43
2018-12-30T13:59:49.924Z,16.47
2018-12-30T14:02:18.406Z,15.43
2018-12-30T14:04:46.861Z,16.03
2018-12-30T14:07:15.308Z,14.77
2018-12-30T14:09:43.735Z,10.47
2018-12-30T14:12:12.269Z,11.37
2018-12-30T14:14:40.804Z,14.17
2018-12-30T14:17:09.562Z,14.77
2018-12-30T14:19:38.003Z,12.10
2018-12-30T14:22:06.464Z,10.87
2018-12-30T14:24:34.895Z,16.60
2018-12-30T14:27:04.028Z,12.80
2018-12-30T14:29:32.443Z,14.63
2018-12-30T14:32:00.992Z,11.83
2018-12-30T14:34:29.696Z,12.53
2018-12-30T14:36:58.495Z,9.80
2018-12-30T14:39:27.000Z,8.90
2018-12-30T14:41:55.481Z,17.70
2018-12-30T14:44:23.923Z,11.43
2018-12-30T14:46:52.374Z,16.10
2018-12-30T14:49:20.832Z,12.93
2018-12-30T14:51:49.345Z,11.30
2018-12-30T14:54:17.867Z,15.23
2018-12-30T14:56:46.875Z,13.20
2018-12-30T14:59:15.378Z,13.50
2018-12-30T15:01:43.816Z,14.03
2018-12-30T15:04:12.241Z,19.67
2018-12-30T15:06:40.708Z,15.53
2018-12-30T15:09:09.130Z,16.37
2018-12-30T15:11:37.617Z,14.50
2018-12-30T15:14:06.104Z,15.00
2018-12-30T15:16:34.619Z,19.20
2018-12-30T15:19:03.088Z,16.70
2018-12-30T15:21:31.513Z,11.63
2018-12-30T15:24:00.036Z,16.90
2018-12-30T15:26:28.769Z,13.77
2018-12-30T15:28:57.248Z,13.57
2018-12-30T15:31:25.675Z,15.10
2018-12-30T15:33:54.142Z,16.50
2018-12-30T15:36:22.597Z,15.97
2018-12-30T15:38:51.114Z,14.40
2018-12-30T15:41:19.542Z,19.67
2018-12-30T15:43:48.009Z,15.03
2018-12-30T15:46:17.149Z,13.93
2018-12-30T15:48:45.671Z,27.50
2018-12-30T15:51:14.115Z,17.20
2018-12-30T15:53:42.575Z,33.63
2018-12-30T15:56:11.015Z,19.10
2018-12-30T15:58:39.508Z,19.33
2018-12-30T16:01:07.979Z,33.03
2018-12-30T16:03:36.424Z,23.93
2018-12-30T16:06:04.882Z,34.83
2018-12-30T16:08:33.399Z,22.77
2018-12-30T16:11:01.927Z,20.43
2018-12-30T16:13:30.382Z,27.17
2018-12-30T16:15:58.888Z,20.70
2018-12-30T16:18:27.326Z,23.43
2018-12-30T16:20:55.787Z,22.20
2018-12-30T16:23:24.299Z,15.33
2018-12-30T16:25:52.815Z,24.47
2018-12-30T16:28:21.236Z,16.50
2018-12-30T16:30:49.719Z,13.63
2018-12-30T16:33:18.167Z,32.63
2018-12-30T16:35:46.706Z,21.00
2018-12-30T16:38:15.236Z,43.10
2018-12-30T16:40:43.723Z,19.40
2018-12-30T16:43:12.156Z,21.33
2018-12-30T16:45:40.664Z,19.07
2018-12-30T16:48:09.143Z,16.23
2018-12-30T16:50:37.599Z,20.33
2018-12-30T16:53:06.148Z,17.23
2018-12-30T16:55:34.947Z,15.20
2018-12-30T16:58:03.795Z,33.30
2018-12-30T17:00:32.237Z,14.23
2018-12-30T17:03:00.714Z,19.03
2018-12-30T17:05:29.296Z,17.47
2018-12-30T17:07:57.775Z,15.23
2018-12-30T17:10:26.215Z,19.93
2018-12-30T17:12:54.706Z,17.73
2018-12-30T17:15:23.136Z,22.40
2018-12-30T17:17:51.608Z,19.07
2018-12-30T17:20:20.086Z,15.73
2018-12-30T17:22:48.585Z,20.00
2018-12-30T17:25:17.133Z,19.10
2018-12-30T17:27:45.626Z,22.77
2018-12-30T17:30:14.135Z,20.13
2018-12-30T17:32:42.592Z,16.80
2018-12-30T17:35:11.057Z,21.33
2018-12-30T17:37:39.500Z,22.53
2018-12-30T17:40:08.721Z,21.20
2018-12-30T17:42:37.287Z,23.13
2018-12-30T17:45:06.895Z,26.97
2018-12-30T17:47:35.327Z,24.87
2018-12-30T17:50:04.742Z,26.50
2018-12-30T17:52:33.196Z,24.73
2018-12-30T17:55:01.671Z,25.67
2018-12-30T17:57:30.115Z,23.37
2018-12-30T17:59:58.579Z,23.53
2018-12-30T18:02:27.508Z,23.13
2018-12-30T18:04:55.991Z,26.63
2018-12-30T18:07:24.428Z,24.23
2018-12-30T18:09:52.901Z,24.50
2018-12-30T18:12:21.419Z,28.50
2018-12-30T18:14:51.299Z,31.83
2018-12-30T18:17:19.860Z,27.03
2018-12-30T18:19:48.301Z,24.53
2018-12-30T18:22:16.775Z,25.80
2018-12-30T18:24:45.254Z,22.50
2018-12-30T18:27:13.721Z,27.90
2018-12-30T18:29:42.235Z,25.70
2018-12-30T18:32:10.704Z,25.87
2018-12-30T18:34:39.154Z,23.10
2018-12-30T18:37:07.621Z,26.60
2018-12-30T18:39:36.059Z,26.77
2018-12-30T18:42:04.592Z,27.13
2018-12-30T18:44:33.033Z,29.57
2018-12-30T18:47:01.499Z,28.07
2018-12-30T18:49:29.931Z,28.17
2018-12-30T18:51:58.395Z,27.60
2018-12-30T18:54:26.907Z,31.20
2018-12-30T18:56:55.399Z,31.40
2018-12-30T18:59:23.878Z,34.33
2018-12-30T19:01:52.380Z,27.77
2018-12-30T19:04:20.862Z,27.33
2018-12-30T19:06:49.290Z,24.63
2018-12-30T19:09:17.762Z,24.17
2018-12-30T19:11:46.251Z,28.63
2018-12-30T19:14:14.788Z,28.77
2018-12-30T19:16:43.226Z,24.67
2018-12-30T19:19:13.291Z,26.67
2018-12-30T19:21:41.872Z,29.67
2018-12-30T19:24:10.507Z,29.27
2018-12-30T19:26:38.929Z,32.23
2018-12-30T19:29:07.399Z,25.73
2018-12-30T19:31:35.838Z,24.43
2018-12-30T19:34:04.370Z,25.87
2018-12-30T19:36:32.831Z,26.63
2018-12-30T19:39:02.852Z,20.53
2018-12-30T19:41:31.337Z,20.40
2018-12-30T19:43:59.894Z,25.67
2018-12-30T19:46:28.351Z,24.80
2018-12-30T19:48:56.814Z,25.90
2018-12-30T19:51:25.348Z,24.67
2018-12-30T19:53:53.799Z,25.47
2018-12-30T19:56:22.334Z,21.93
2018-12-30T19:58:50.782Z,29.87
2018-12-30T20:01:19.282Z,26.97
2018-12-30T20:03:47.706Z,24.43
2018-12-30T20:06:16.158Z,24.07
2018-12-30T20:08:44.609Z,29.33
2018-12-30T20:11:13.071Z,23.20
2018-12-30T20:13:41.496Z,24.27
2018-12-30T20:16:09.980Z,26.03
2018-12-30T20:18:38.486Z,25.40
2018-12-30T20:21:06.911Z,23.10
2018-12-30T20:23:35.375Z,32.23
2018-12-30T20:26:03.823Z,24.70
2018-12-30T20:28:32.303Z,24.40
2018-12-30T20:31:00.739Z,31.13
2018-12-30T20:33:29.210Z,31.97
2018-12-30T20:35:57.635Z,25.23
2018-12-30T20:38:26.140Z,27.50
2018-12-30T20:40:54.631Z,26.27
2018-12-30T20:43:23.226Z,23.70
2018-12-30T20:45:51.732Z,23.50
2018-12-30T20:48:20.304Z,26.43
2018-12-30T20:50:48.882Z,29.23
2018-12-30T20:53:17.388Z,36.83
2018-12-30T20:55:45.825Z,37.13
2018-12-30T20:58:14.287Z,28.70
2018-12-30T21:00:42.699Z,26.40
2018-12-30T21:03:11.163Z,28.00
2018-12-30T21:05:39.615Z,26.73
2018-12-30T21:08:08.080Z,26.90
2018-12-30T21:10:36.697Z,28.47
2018-12-30T21:13:05.323Z,26.73
2018-12-30T21:15:33.834Z,31.90
2018-12-30T21:18:02.292Z,28.20
2018-12-30T21:20:30.804Z,27.97
2018-12-30T21:22:59.299Z,25.57
2018-12-30T21:25:27.770Z,24.80
2018-12-30T21:27:56.239Z,32.50
2018-12-30T21:30:24.829Z,33.27
2018-12-30T21:32:53.268Z,36.17
2018-12-30T21:35:21.787Z,27.13
2018-12-30T21:37:50.356Z,27.17
2018-12-30T21:40:18.899Z,23.13
2018-12-30T21:42:47.424Z,29.73
2018-12-30T21:45:15.915Z,27.63
2018-12-30T21:47:45.939Z,29.73
2018-12-30T21:50:14.716Z,35.13
2018-12-30T21:52:43.238Z,33.27
2018-12-30T21:55:11.721Z,34.70
2018-12-30T21:57:40.138Z,24.33
2018-12-30T22:00:09.436Z,29.43
2018-12-30T22:02:37.871Z,24.43
2018-12-30T22:05:06.478Z,28.40
2018-12-30T22:07:34.941Z,30.07
2018-12-30T22:10:04.236Z,30.67
2018-12-30T22:12:32.813Z,40.37
2018-12-30T22:15:01.823Z,25.40
2018-12-30T22:17:31.332Z,33.90
2018-12-30T22:19:59.895Z,29.53
2018-12-30T22:22:28.569Z,26.87
2018-12-30T22:24:57.137Z,24.50
2018-12-30T22:27:25.600Z,24.70
2018-12-30T22:29:54.064Z,22.93
2018-12-30T22:32:22.650Z,25.27
2018-12-30T22:34:51.139Z,22.40
2018-12-30T22:37:19.602Z,32.33
2018-12-30T22:39:48.020Z,22.93
2018-12-30T22:42:16.545Z,21.27
2018-12-30T22:44:45.057Z,19.83
2018-12-30T22:47:13.523Z,23.20
2018-12-30T22:49:41.952Z,23.23
2018-12-30T22:52:10.409Z,32.87
2018-12-30T22:54:38.836Z,32.13
2018-12-30T22:57:07.277Z,25.37
2018-12-30T22:59:35.758Z,24.40
2018-12-30T23:02:04.272Z,30.93
2018-12-30T23:04:32.731Z,22.33
2018-12-30T23:07:01.227Z,24.97
2018-12-30T23:09:29.683Z,26.73
2018-12-30T23:11:58.135Z,24.67
2018-12-30T23:14:26.566Z,18.87
2018-12-30T23:16:55.039Z,23.03
2018-12-30T23:19:23.478Z,25.70
2018-12-30T23:21:51.941Z,27.37
2018-12-30T23:24:20.503Z,29.23
2018-12-30T23:26:48.951Z,25.40
2018-12-30T23:29:17.482Z,26.20
2018-12-30T23:31:45.938Z,23.10
2018-12-30T23:34:14.387Z,27.40
2018-12-30T23:36:42.814Z,22.77
2018-12-30T23:39:11.290Z,21.47
2018-12-30T23:41:39.819Z,25.17
2018-12-30T23:44:09.361Z,22.47
2018-12-30T23:46:37.917Z,20.10
2018-12-30T23:49:06.360Z,26.73
2018-12-30T23:51:34.820Z,20.73
2018-12-30T23:54:03.288Z,28.77
2018-12-30T23:56:31.883Z,22.17
2018-12-30T23:59:00.341Z,25.77
